createdAt,value
2018-11-11T00:01:46.518Z,90.54
2018-11-11T00:06:43.891Z,90.79
2018-11-11T00:11:41.260Z,90.27
2018-11-11T00:16:39.886Z,90.02
2018-11-11T00:21:37.293Z,90.66
2018-11-11T00:26:34.719Z,90.02
2018-11-11T00:31:32.170Z,89.97
2018-11-11T00:36:29.551Z,90.29
2018-11-11T00:41:26.994Z,89.35
2018-11-11T00:46:28.156Z,89.37
2018-11-11T00:51:25.560Z,89.06
2018-11-11T00:56:22.950Z,89.34
2018-11-11T01:01:20.330Z,90.12
2018-11-11T01:06:17.723Z,90.42
2018-11-11T01:11:15.212Z,89.53
2018-11-11T01:16:20.386Z,89.12
2018-11-11T01:21:17.791Z,89.04
2018-11-11T01:26:16.386Z,88.29
2018-11-11T01:31:13.852Z,88.64
2018-11-11T01:36:11.226Z,87.87
2018-11-11T01:41:08.621Z,87.49
2018-11-11T01:46:11.254Z,87.09
2018-11-11T01:51:08.737Z,86.80
2018-11-11T01:56:06.462Z,86.26
2018-11-11T02:01:03.967Z,86.82
2018-11-11T02:06:01.344Z,86.98
2018-11-11T02:10:58.711Z,86.81
2018-11-11T02:16:13.774Z,86.83
2018-11-11T02:21:11.294Z,87.02
2018-11-11T02:26:08.640Z,86.95
2018-11-11T02:31:06.311Z,86.54
2018-11-11T02:36:03.669Z,85.98
2018-11-11T02:41:01.088Z,85.54
2018-11-11T02:46:08.366Z,85.67
2018-11-11T02:51:05.919Z,85.58
2018-11-11T02:56:03.322Z,85.80
2018-11-11T03:01:00.691Z,85.32
2018-11-11T03:05:58.268Z,84.73
2018-11-11T03:10:55.647Z,84.82
2018-11-11T03:16:00.667Z,84.82
2018-11-11T03:20:58.207Z,84.74
2018-11-11T03:25:55.590Z,84.68
2018-11-11T03:30:52.963Z,84.06
2018-11-11T03:35:50.398Z,84.57
2018-11-11T03:40:47.803Z,83.29
2018-11-11T03:45:47.445Z,83.46
2018-11-11T03:50:44.851Z,83.60
2018-11-11T03:55:42.247Z,83.15
2018-11-11T04:00:39.628Z,83.32
2018-11-11T04:05:37.078Z,83.33
2018-11-11T04:10:34.461Z,81.78
2018-11-11T04:15:31.923Z,82.76
2018-11-11T04:20:29.315Z,83.08
2018-11-11T04:25:26.702Z,82.38
2018-11-11T04:30:24.903Z,81.92
2018-11-11T04:35:22.274Z,81.05
2018-11-11T04:40:19.701Z,80.62
2018-11-11T04:45:17.162Z,80.86
2018-11-11T04:50:15.699Z,80.11
2018-11-11T04:55:13.102Z,79.84
2018-11-11T05:00:11.775Z,80.06
2018-11-11T05:05:10.168Z,81.28
2018-11-11T05:10:07.759Z,81.43
2018-11-11T05:15:06.347Z,81.13
2018-11-11T05:20:04.068Z,81.83
2018-11-11T05:25:01.474Z,81.40
2018-11-11T05:29:58.910Z,81.07
2018-11-11T05:34:56.293Z,81.36
2018-11-11T05:39:53.673Z,80.84
2018-11-11T05:44:51.040Z,80.94
2018-11-11T05:49:48.408Z,81.25
2018-11-11T05:54:45.777Z,80.45
2018-11-11T05:59:43.206Z,80.83
2018-11-11T06:04:40.587Z,80.53
2018-11-11T06:09:37.966Z,81.92
2018-11-11T06:14:35.362Z,80.90
2018-11-11T06:19:32.798Z,81.35
2018-11-11T06:24:30.444Z,81.75
2018-11-11T06:29:27.846Z,82.32
2018-11-11T06:34:25.362Z,82.62
2018-11-11T06:39:23.125Z,82.15
2018-11-11T06:44:20.560Z,81.71
2018-11-11T06:49:19.108Z,81.12
2018-11-11T06:54:16.515Z,80.67
2018-11-11T06:59:13.935Z,80.08
2018-11-11T07:04:11.400Z,80.05
2018-11-11T07:09:09.874Z,79.83
2018-11-11T07:14:07.385Z,79.11
2018-11-11T07:19:05.171Z,79.20
2018-11-11T07:24:02.667Z,79.75
2018-11-11T07:29:00.038Z,80.29
2018-11-11T07:33:57.468Z,81.16
2018-11-11T07:38:54.906Z,80.54
2018-11-11T07:43:52.414Z,81.29
2018-11-11T07:48:50.272Z,80.25
2018-11-11T07:53:47.686Z,80.63
2018-11-11T07:58:45.104Z,80.36
2018-11-11T08:03:42.504Z,80.31
2018-11-11T08:08:39.941Z,80.53
2018-11-11T08:13:37.354Z,79.86
2018-11-11T08:18:34.771Z,79.23
2018-11-11T08:23:32.238Z,79.57
2018-11-11T08:28:29.876Z,78.58
2018-11-11T08:33:27.323Z,78.88
2018-11-11T08:38:24.772Z,78.16
2018-11-11T08:43:22.251Z,77.43
2018-11-11T08:48:19.799Z,76.61
2018-11-11T08:53:17.695Z,75.98
2018-11-11T08:58:15.144Z,75.21
2018-11-11T09:03:13.467Z,75.23
2018-11-11T09:08:10.972Z,74.64
2018-11-11T09:13:08.407Z,75.54
2018-11-11T09:18:05.919Z,74.85
2018-11-11T09:23:03.335Z,74.76
2018-11-11T09:28:02.243Z,75.11
2018-11-11T09:32:59.846Z,72.61
2018-11-11T09:37:57.382Z,71.62
2018-11-11T09:42:55.578Z,70.08
2018-11-11T09:47:54.271Z,69.31
2018-11-11T09:52:52.003Z,69.43
2018-11-11T09:57:49.367Z,69.78
2018-11-11T10:03:08.516Z,68.86
2018-11-11T10:08:10.392Z,69.34
2018-11-11T10:13:17.340Z,70.19
2018-11-11T10:18:23.481Z,69.58
2018-11-11T10:23:30.185Z,69.52
2018-11-11T10:28:34.694Z,67.83
2018-11-11T10:33:37.939Z,68.46
2018-11-11T10:39:39.900Z,67.92
2018-11-11T10:44:48.244Z,67.77
2018-11-11T10:49:57.011Z,67.58
2018-11-11T10:54:54.850Z,68.27
2018-11-11T10:59:52.403Z,67.48
2018-11-11T11:04:55.389Z,67.43
2018-11-11T11:09:52.795Z,67.27
2018-11-11T11:14:50.231Z,66.77
2018-11-11T11:19:47.708Z,66.23
2018-11-11T11:24:45.149Z,66.30
2018-11-11T11:29:42.600Z,66.14
2018-11-11T11:34:39.976Z,65.83
2018-11-11T11:39:37.537Z,66.30
2018-11-11T11:44:35.018Z,66.22
2018-11-11T11:49:32.526Z,65.58
2018-11-11T11:54:29.971Z,64.25
2018-11-11T11:59:27.447Z,65.18
2018-11-11T12:04:25.052Z,65.16
2018-11-11T12:09:22.532Z,65.76
2018-11-11T12:14:19.987Z,65.31
2018-11-11T12:19:17.477Z,65.26
2018-11-11T12:24:14.933Z,66.01
2018-11-11T12:29:12.420Z,64.28
2018-11-11T12:34:09.866Z,65.22
2018-11-11T12:39:11.913Z,64.13
2018-11-11T12:44:23.866Z,64.50
2018-11-11T12:49:23.588Z,65.11
2018-11-11T12:54:27.197Z,65.16
2018-11-11T12:59:28.854Z,64.46
2018-11-11T13:04:29.792Z,64.84
2018-11-11T13:09:29.083Z,64.73
2018-11-11T13:14:27.906Z,64.85
2018-11-11T13:19:30.703Z,65.64
2018-11-11T13:24:30.759Z,65.58
2018-11-11T13:29:28.247Z,65.75
2018-11-11T13:34:25.711Z,65.24
2018-11-11T13:39:23.127Z,65.60
2018-11-11T13:44:20.732Z,64.99
2018-11-11T13:49:18.110Z,65.43
2018-11-11T13:54:15.534Z,66.19
2018-11-11T13:59:13.026Z,65.92
2018-11-11T14:04:10.467Z,66.44
2018-11-11T14:09:12.640Z,66.81
2018-11-11T14:14:10.055Z,66.97
2018-11-11T14:19:07.841Z,66.99
2018-11-11T14:24:05.039Z,67.50
2018-11-11T14:29:02.476Z,67.01
2018-11-11T14:34:00.809Z,67.35
2018-11-11T14:38:59.262Z,67.39
2018-11-11T14:43:57.673Z,67.19
2018-11-11T14:48:57.190Z,67.67
2018-11-11T14:53:56.564Z,68.96
2018-11-11T14:58:56.209Z,69.87
2018-11-11T15:03:53.527Z,69.66
2018-11-11T15:08:50.958Z,70.35
2018-11-11T15:13:48.421Z,70.67
2018-11-11T15:18:45.861Z,70.04
2018-11-11T15:23:43.370Z,70.83
2018-11-11T15:28:40.775Z,70.83
2018-11-11T15:33:38.252Z,70.72
2018-11-11T15:38:36.388Z,71.15
2018-11-11T15:43:34.384Z,72.22
2018-11-11T15:48:31.875Z,73.53
2018-11-11T15:53:29.290Z,74.87
2018-11-11T15:58:26.703Z,77.35
2018-11-11T16:03:24.096Z,77.95
2018-11-11T16:08:21.574Z,78.00
2018-11-11T16:13:18.954Z,77.83
2018-11-11T16:18:16.430Z,77.48
2018-11-11T16:23:13.900Z,76.73
2018-11-11T16:28:11.875Z,77.11
2018-11-11T16:33:09.680Z,76.61
2018-11-11T16:38:07.242Z,76.71
2018-11-11T16:43:04.862Z,76.78
2018-11-11T16:48:02.340Z,76.36
2018-11-11T16:53:01.382Z,77.26
2018-11-11T16:57:58.752Z,77.64
2018-11-11T17:02:57.118Z,77.44
2018-11-11T17:07:54.699Z,78.22
2018-11-11T17:12:53.199Z,78.63
2018-11-11T17:17:50.631Z,78.86
2018-11-11T17:22:49.112Z,78.12
2018-11-11T17:27:46.742Z,78.26
2018-11-11T17:32:44.946Z,79.48
2018-11-11T17:37:42.555Z,79.16
2018-11-11T17:42:41.098Z,78.69
2018-11-11T17:47:39.074Z,78.44
2018-11-11T17:52:36.619Z,78.06
2018-11-11T17:57:34.840Z,78.06
2018-11-11T18:02:35.750Z,77.61
2018-11-11T18:07:33.322Z,77.79
2018-11-11T18:12:33.773Z,78.16
2018-11-11T18:17:31.322Z,77.84
2018-11-11T18:22:28.814Z,76.81
2018-11-11T18:27:26.330Z,77.59
2018-11-11T18:32:23.590Z,77.09
2018-11-11T18:37:21.009Z,76.78
2018-11-11T18:42:18.425Z,76.12
2018-11-11T18:47:17.028Z,76.33
2018-11-11T18:52:14.439Z,76.50
2018-11-11T18:57:11.819Z,76.21
2018-11-11T19:02:09.176Z,75.64
2018-11-11T19:07:06.577Z,76.13
2018-11-11T19:12:04.360Z,76.17
2018-11-11T19:17:05.964Z,76.56
2018-11-11T19:22:03.408Z,77.95
2018-11-11T19:27:00.859Z,78.04
2018-11-11T19:31:58.309Z,77.93
2018-11-11T19:36:55.695Z,78.34
2018-11-11T19:41:53.211Z,78.55
2018-11-11T19:46:51.827Z,79.00
2018-11-11T19:51:49.220Z,80.44
2018-11-11T19:56:46.627Z,81.07
2018-11-11T20:01:44.063Z,81.98
2018-11-11T20:06:41.447Z,82.88
2018-11-11T20:11:38.833Z,82.69
2018-11-11T20:16:37.758Z,83.15
2018-11-11T20:21:35.181Z,84.71
2018-11-11T20:26:32.575Z,84.13
2018-11-11T20:31:29.994Z,85.26
2018-11-11T20:36:27.476Z,85.94
2018-11-11T20:41:24.884Z,86.41
2018-11-11T20:46:25.534Z,86.47
2018-11-11T20:51:22.938Z,87.11
2018-11-11T20:56:20.362Z,87.06
2018-11-11T21:01:17.735Z,87.63
2018-11-11T21:06:15.175Z,88.07
2018-11-11T21:11:12.637Z,88.37
2018-11-11T21:16:17.437Z,88.13
2018-11-11T21:21:15.138Z,87.94
2018-11-11T21:26:12.530Z,87.89
2018-11-11T21:31:09.970Z,88.40
2018-11-11T21:36:07.354Z,88.52
2018-11-11T21:41:05.290Z,88.95
2018-11-11T21:46:09.498Z,88.26
2018-11-11T21:51:06.939Z,88.43
2018-11-11T21:56:04.603Z,89.80
2018-11-11T22:01:02.018Z,89.26
2018-11-11T22:05:59.412Z,89.38
2018-11-11T22:10:56.773Z,89.71
2018-11-11T22:16:09.795Z,89.50
2018-11-11T22:21:10.351Z,89.19
2018-11-11T22:26:07.731Z,89.72
2018-11-11T22:31:05.126Z,89.40
2018-11-11T22:36:02.503Z,89.65
2018-11-11T22:40:59.920Z,90.07
2018-11-11T22:46:05.810Z,89.83
2018-11-11T22:51:03.239Z,89.54
2018-11-11T22:56:00.623Z,90.04
2018-11-11T23:01:03.730Z,89.54
2018-11-11T23:06:01.083Z,90.01
2018-11-11T23:10:58.458Z,89.92
2018-11-11T23:16:03.855Z,89.41
2018-11-11T23:21:01.309Z,89.36
2018-11-11T23:25:58.686Z,89.65
2018-11-11T23:30:56.077Z,90.83
2018-11-11T23:35:53.902Z,89.79
2018-11-11T23:40:52.694Z,90.47
2018-11-11T23:45:51.624Z,90.49
2018-11-11T23:50:50.335Z,89.39
2018-11-11T23:55:51.399Z,89.99
